createdAt,value
2022-11-29T00:00:54.059Z,0.50
2022-11-29T00:03:25.099Z,0.50
2022-11-29T00:05:56.991Z,0.52
2022-11-29T00:08:27.797Z,0.43
2022-11-29T00:10:59.084Z,0.75
2022-11-29T00:13:30.304Z,0.40
2022-11-29T00:16:11.899Z,0.40
2022-11-29T00:18:43.048Z,0.50
2022-11-29T00:21:14.096Z,0.50
2022-11-29T00:23:45.413Z,0.40
2022-11-29T00:26:16.747Z,0.50
2022-11-29T00:28:47.746Z,0.47
2022-11-29T00:31:20.221Z,0.40
2022-11-29T00:33:52.185Z,0.40
2022-11-29T00:36:23.287Z,0.50
2022-11-29T00:38:55.214Z,0.80
2022-11-29T00:41:26.268Z,0.40
2022-11-29T00:43:57.503Z,0.55
2022-11-29T00:46:28.514Z,0.45
2022-11-29T00:48:59.693Z,0.60
2022-11-29T00:51:30.414Z,0.57
2022-11-29T00:54:01.609Z,0.40
2022-11-29T00:56:32.979Z,0.40
2022-11-29T00:59:03.953Z,0.40
2022-11-29T01:01:35.587Z,0.57
2022-11-29T01:04:06.702Z,0.47
2022-11-29T01:06:37.689Z,0.45
2022-11-29T01:09:08.777Z,0.63
2022-11-29T01:11:39.760Z,0.55
2022-11-29T01:14:12.421Z,0.50
2022-11-29T01:16:43.460Z,0.50
2022-11-29T01:19:14.347Z,0.63
2022-11-29T01:21:45.109Z,0.57
2022-11-29T01:24:16.313Z,0.60
2022-11-29T01:26:47.418Z,0.60
2022-11-29T01:29:18.203Z,0.60
2022-11-29T01:31:49.421Z,0.73
2022-11-29T01:34:20.463Z,0.60
2022-11-29T01:36:51.732Z,0.50
2022-11-29T01:39:23.041Z,0.73
2022-11-29T01:41:54.015Z,0.50
2022-11-29T01:44:24.821Z,0.40
2022-11-29T01:46:56.836Z,0.50
2022-11-29T01:49:43.792Z,0.47
2022-11-29T01:52:24.030Z,0.50
2022-11-29T01:54:59.094Z,0.50
2022-11-29T01:57:31.005Z,0.55
2022-11-29T02:00:08.176Z,0.55
2022-11-29T02:02:49.769Z,0.90
2022-11-29T02:05:21.453Z,0.57
2022-11-29T02:07:54.538Z,0.60
2022-11-29T02:10:55.229Z,0.80
2022-11-29T02:13:39.843Z,0.60
2022-11-29T02:16:47.716Z,0.70
2022-11-29T02:19:18.554Z,0.60
2022-11-29T02:22:17.558Z,0.70
2022-11-29T02:25:05.509Z,0.50
2022-11-29T02:27:52.074Z,0.52
2022-11-29T02:30:27.502Z,0.50
2022-11-29T02:33:09.737Z,0.57
2022-11-29T02:38:44.318Z,0.60
2022-11-29T02:41:43.512Z,0.65
2022-11-29T02:44:39.105Z,0.60
2022-11-29T02:47:34.658Z,0.57
2022-11-29T02:50:27.041Z,0.60
2022-11-29T02:53:16.669Z,0.60
2022-11-29T02:56:13.139Z,0.73
2022-11-29T02:58:56.795Z,0.45
2022-11-29T03:01:44.311Z,0.63
2022-11-29T03:04:47.336Z,0.60
2022-11-29T03:07:27.814Z,0.88
2022-11-29T03:10:07.846Z,0.70
2022-11-29T03:12:44.196Z,0.60
2022-11-29T03:15:27.233Z,0.68
2022-11-29T03:18:05.654Z,0.82
2022-11-29T03:20:45.564Z,0.60
2022-11-29T03:23:26.651Z,0.77
2022-11-29T03:26:00.633Z,0.60
2022-11-29T03:28:40.481Z,1.00
2022-11-29T03:31:17.509Z,0.90
2022-11-29T03:33:52.847Z,0.75
2022-11-29T03:36:52.660Z,1.02
2022-11-29T03:39:32.471Z,0.80
2022-11-29T03:42:07.326Z,0.80
2022-11-29T03:44:55.129Z,0.90
2022-11-29T03:47:36.047Z,1.80
2022-11-29T03:50:08.439Z,0.90
2022-11-29T03:53:02.416Z,0.80
2022-11-29T03:55:59.222Z,0.80
2022-11-29T03:58:48.322Z,0.95
2022-11-29T04:01:52.848Z,0.90
2022-11-29T04:04:32.705Z,0.88
2022-11-29T04:07:18.923Z,0.98
2022-11-29T04:10:19.917Z,0.73
2022-11-29T04:13:21.860Z,1.00
2022-11-29T04:16:13.146Z,0.70
2022-11-29T04:19:05.843Z,0.82
2022-11-29T04:22:02.320Z,1.33
2022-11-29T04:24:42.142Z,0.70
2022-11-29T04:27:25.750Z,0.75
2022-11-29T04:30:16.375Z,0.80
2022-11-29T04:33:17.432Z,0.65
2022-11-29T04:36:12.632Z,0.50
2022-11-29T04:39:09.967Z,0.60
2022-11-29T04:42:07.160Z,0.45
2022-11-29T04:44:57.263Z,0.70
2022-11-29T04:48:15.503Z,0.73
2022-11-29T04:51:06.203Z,0.70
2022-11-29T04:53:52.198Z,0.93
2022-11-29T04:56:50.340Z,0.77
2022-11-29T04:59:45.203Z,0.80
2022-11-29T05:02:58.414Z,0.77
2022-11-29T05:06:05.282Z,0.73
2022-11-29T05:09:01.786Z,0.80
2022-11-29T05:11:40.605Z,0.60
2022-11-29T05:14:33.680Z,0.70
2022-11-29T05:17:33.798Z,0.73
2022-11-29T05:20:32.198Z,0.80
2022-11-29T05:23:12.176Z,0.80
2022-11-29T05:26:01.776Z,0.80
2022-11-29T05:28:35.797Z,0.65
2022-11-29T05:31:14.946Z,0.80
2022-11-29T05:34:00.780Z,0.70
2022-11-29T05:36:52.896Z,0.60
2022-11-29T05:39:46.917Z,0.70
2022-11-29T05:43:01.118Z,0.77
2022-11-29T05:46:06.222Z,1.08
2022-11-29T05:48:49.154Z,0.65
2022-11-29T05:51:25.357Z,0.60
2022-11-29T05:53:56.771Z,0.77
2022-11-29T05:56:57.648Z,0.73
2022-11-29T05:59:32.555Z,0.65
2022-11-29T06:02:32.753Z,0.60
2022-11-29T06:05:43.219Z,0.80
2022-11-29T06:08:19.126Z,0.70
2022-11-29T06:11:03.549Z,0.85
2022-11-29T06:13:56.924Z,0.77
2022-11-29T06:17:03.537Z,0.75
2022-11-29T06:20:18.542Z,0.80
2022-11-29T06:23:07.626Z,0.60
2022-11-29T06:26:06.582Z,0.80
2022-11-29T06:29:15.604Z,0.75
2022-11-29T06:31:53.277Z,0.65
2022-11-29T06:34:33.800Z,0.60
2022-11-29T06:37:34.284Z,0.68
2022-11-29T06:40:05.926Z,0.70
2022-11-29T06:45:08.018Z,0.70
2022-11-29T06:47:39.568Z,0.70
2022-11-29T06:50:48.197Z,0.60
2022-11-29T06:53:33.109Z,1.13
2022-11-29T06:56:29.097Z,0.82
2022-11-29T06:59:26.014Z,0.65
2022-11-29T07:02:21.986Z,0.93
2022-11-29T07:05:23.325Z,1.10
2022-11-29T07:08:00.317Z,1.17
2022-11-29T07:10:36.126Z,1.10
2022-11-29T07:13:07.584Z,1.40
2022-11-29T07:15:39.362Z,2.35
2022-11-29T07:18:36.868Z,3.65
2022-11-29T07:21:38.242Z,2.20
2022-11-29T07:24:30.965Z,1.60
2022-11-29T07:27:20.142Z,2.53
2022-11-29T07:30:17.072Z,4.03
2022-11-29T07:32:58.761Z,2.83
2022-11-29T07:35:40.317Z,1.80
2022-11-29T07:38:39.846Z,1.00
2022-11-29T07:41:20.161Z,1.30
2022-11-29T07:44:26.223Z,0.90
2022-11-29T07:46:57.206Z,2.30
2022-11-29T07:51:59.624Z,1.20
2022-11-29T07:54:31.133Z,1.10
2022-11-29T07:57:02.061Z,1.00
2022-11-29T07:59:33.505Z,0.93
2022-11-29T08:02:10.186Z,0.90
2022-11-29T08:04:45.954Z,0.93
2022-11-29T08:07:17.368Z,1.00
2022-11-29T08:09:48.449Z,1.10
2022-11-29T08:12:19.225Z,1.20
2022-11-29T08:14:50.312Z,1.00
2022-11-29T08:17:21.253Z,1.00
2022-11-29T08:19:52.435Z,0.98
2022-11-29T08:22:23.745Z,1.33
2022-11-29T08:24:54.873Z,1.10
2022-11-29T08:27:26.186Z,0.80
2022-11-29T08:29:57.423Z,1.02
2022-11-29T08:32:29.324Z,0.82
2022-11-29T08:35:00.572Z,1.38
2022-11-29T08:37:34.208Z,1.30
2022-11-29T08:40:06.116Z,1.30
2022-11-29T08:42:37.309Z,1.30
2022-11-29T08:45:08.890Z,1.60
2022-11-29T08:47:42.555Z,1.00
2022-11-29T08:50:17.359Z,1.02
2022-11-29T08:53:08.364Z,1.10
2022-11-29T08:55:44.174Z,1.00
2022-11-29T08:58:16.938Z,1.08
2022-11-29T09:00:48.466Z,0.90
2022-11-29T09:03:38.321Z,1.20
2022-11-29T09:06:12.691Z,1.02
2022-11-29T09:08:45.225Z,1.40
2022-11-29T09:11:19.399Z,1.15
2022-11-29T09:13:52.984Z,1.00
2022-11-29T09:16:26.938Z,1.33
2022-11-29T09:18:58.103Z,1.40
2022-11-29T09:21:29.862Z,1.00
2022-11-29T09:24:07.687Z,1.10
2022-11-29T09:26:42.129Z,1.10
2022-11-29T09:29:13.518Z,1.45
2022-11-29T09:31:48.088Z,1.20
2022-11-29T09:34:22.441Z,1.30
2022-11-29T09:36:53.784Z,1.23
2022-11-29T09:39:25.157Z,1.35
2022-11-29T09:42:11.323Z,1.60
2022-11-29T09:44:48.755Z,1.30
2022-11-29T09:47:41.154Z,1.15
2022-11-29T09:50:28.192Z,1.27
2022-11-29T09:53:33.273Z,1.33
2022-11-29T09:56:25.029Z,1.10
2022-11-29T09:59:20.281Z,1.08
2022-11-29T10:01:59.710Z,1.20
2022-11-29T10:04:37.861Z,1.27
2022-11-29T10:07:21.221Z,4.97
2022-11-29T10:09:54.704Z,7.88
2022-11-29T10:12:38.513Z,8.73
2022-11-29T10:15:15.571Z,1.58
2022-11-29T10:18:19.275Z,2.30
2022-11-29T10:20:52.950Z,1.40
2022-11-29T10:23:50.320Z,1.10
2022-11-29T10:26:22.272Z,1.30
2022-11-29T10:28:56.704Z,1.08
2022-11-29T10:31:50.720Z,1.30
2022-11-29T10:34:24.246Z,1.63
2022-11-29T10:37:04.119Z,1.50
2022-11-29T10:39:46.092Z,1.40
2022-11-29T10:42:42.947Z,1.63
2022-11-29T10:45:39.201Z,1.85
2022-11-29T10:48:12.837Z,2.05
2022-11-29T10:50:45.838Z,2.13
2022-11-29T10:53:39.764Z,2.42
2022-11-29T10:56:32.632Z,1.90
2022-11-29T10:59:15.412Z,1.50
2022-11-29T11:01:46.449Z,1.73
2022-11-29T11:04:24.251Z,1.55
2022-11-29T11:06:58.265Z,4.57
2022-11-29T11:09:50.943Z,6.28
2022-11-29T11:12:25.211Z,2.67
2022-11-29T11:15:15.523Z,1.65
2022-11-29T11:18:22.788Z,1.60
2022-11-29T11:21:00.438Z,1.45
2022-11-29T11:23:39.935Z,6.03
2022-11-29T11:26:15.532Z,3.50
2022-11-29T11:28:46.646Z,3.40
2022-11-29T11:31:18.590Z,4.93
2022-11-29T11:33:50.127Z,1.85
2022-11-29T11:36:26.416Z,1.60
2022-11-29T11:39:13.943Z,1.60
2022-11-29T11:42:03.381Z,1.40
2022-11-29T11:44:58.329Z,1.60
2022-11-29T11:47:31.645Z,1.75
2022-11-29T11:50:05.556Z,1.60
2022-11-29T11:52:48.879Z,1.20
2022-11-29T11:55:24.809Z,2.08
2022-11-29T11:58:23.615Z,1.77
2022-11-29T12:01:04.327Z,1.50
2022-11-29T12:03:50.750Z,1.48
2022-11-29T12:06:31.222Z,1.52
2022-11-29T12:09:36.850Z,1.50
2022-11-29T12:12:11.467Z,1.33
2022-11-29T12:14:51.803Z,1.40
2022-11-29T12:17:51.753Z,1.30
2022-11-29T12:20:58.237Z,1.15
2022-11-29T12:23:54.090Z,1.35
2022-11-29T12:26:57.888Z,1.70
2022-11-29T12:29:32.130Z,1.85
2022-11-29T12:32:21.705Z,1.70
2022-11-29T12:35:00.950Z,1.60
2022-11-29T12:37:36.349Z,1.70
2022-11-29T12:40:18.544Z,1.33
2022-11-29T12:43:04.152Z,1.50
2022-11-29T12:45:35.778Z,1.35
2022-11-29T12:48:21.640Z,1.35
2022-11-29T12:51:04.540Z,1.48
2022-11-29T12:53:50.060Z,2.08
2022-11-29T12:56:31.752Z,1.70
2022-11-29T12:59:27.554Z,1.60
2022-11-29T13:02:16.967Z,1.33
2022-11-29T13:05:06.579Z,1.80
2022-11-29T13:07:56.135Z,2.15
2022-11-29T13:10:36.387Z,1.67
2022-11-29T13:13:16.344Z,1.65
2022-11-29T13:16:14.682Z,1.50
2022-11-29T13:18:55.647Z,1.70
2022-11-29T13:22:15.090Z,1.35
2022-11-29T13:24:53.000Z,1.63
2022-11-29T13:27:54.801Z,1.33
2022-11-29T13:30:26.228Z,1.60
2022-11-29T13:32:57.334Z,1.50
2022-11-29T13:35:37.266Z,1.60
2022-11-29T13:38:37.664Z,2.03
2022-11-29T13:41:10.991Z,1.90
2022-11-29T13:44:09.478Z,1.45
2022-11-29T13:46:46.209Z,1.63
2022-11-29T13:49:25.582Z,2.10
2022-11-29T13:52:07.425Z,2.00
2022-11-29T13:54:38.237Z,1.80
2022-11-29T13:57:11.321Z,1.80
2022-11-29T13:59:47.378Z,1.80
2022-11-29T14:02:29.853Z,1.50
2022-11-29T14:05:01.034Z,2.03
2022-11-29T14:07:34.636Z,1.60
2022-11-29T14:10:11.568Z,1.80
2022-11-29T14:12:50.873Z,1.73
2022-11-29T14:15:25.897Z,1.70
2022-11-29T14:18:09.555Z,1.88
2022-11-29T14:20:55.137Z,2.03
2022-11-29T14:23:45.947Z,1.70
2022-11-29T14:26:28.989Z,1.77
2022-11-29T14:29:00.425Z,1.73
2022-11-29T14:31:51.571Z,2.00
2022-11-29T14:34:30.261Z,2.03
2022-11-29T14:37:30.742Z,2.35
2022-11-29T14:40:05.036Z,2.05
2022-11-29T14:42:36.215Z,2.05
2022-11-29T14:45:49.390Z,2.75
2022-11-29T14:48:32.327Z,2.13
2022-11-29T14:51:15.111Z,2.15
2022-11-29T14:53:47.746Z,2.70
2022-11-29T14:56:34.443Z,2.45
2022-11-29T14:59:42.704Z,2.30
2022-11-29T15:02:43.987Z,2.47
2022-11-29T15:05:23.705Z,2.40
2022-11-29T15:08:16.381Z,2.00
2022-11-29T15:11:03.231Z,2.25
2022-11-29T15:13:37.098Z,2.20
2022-11-29T15:16:26.320Z,3.28
2022-11-29T15:19:15.877Z,2.80
2022-11-29T15:21:56.842Z,2.90
2022-11-29T15:24:28.879Z,2.70
2022-11-29T15:27:02.001Z,3.05
2022-11-29T15:29:34.103Z,2.95
2022-11-29T15:34:44.186Z,4.03
2022-11-29T15:37:26.231Z,3.22
2022-11-29T15:40:20.525Z,2.10
2022-11-29T15:43:14.015Z,2.28
2022-11-29T15:45:53.582Z,2.42
2022-11-29T15:48:27.541Z,2.17
2022-11-29T15:51:10.958Z,2.50
2022-11-29T15:53:51.946Z,2.13
2022-11-29T15:56:37.634Z,2.10
2022-11-29T15:59:21.120Z,1.92
2022-11-29T16:01:54.458Z,1.90
2022-11-29T16:04:28.714Z,2.13
2022-11-29T16:07:01.468Z,1.90
2022-11-29T16:09:42.931Z,2.17
2022-11-29T16:12:19.031Z,2.22
2022-11-29T16:14:57.338Z,1.80
2022-11-29T16:17:37.732Z,2.20
2022-11-29T16:20:28.769Z,2.00
2022-11-29T16:23:15.857Z,1.90
2022-11-29T16:26:04.680Z,2.13
2022-11-29T16:28:43.153Z,1.92
2022-11-29T16:31:19.357Z,2.25
2022-11-29T16:33:51.980Z,1.98
2022-11-29T16:36:25.422Z,2.40
2022-11-29T16:39:03.348Z,2.75
2022-11-29T16:41:39.744Z,2.13
2022-11-29T16:44:42.954Z,2.30
2022-11-29T16:47:27.906Z,2.20
2022-11-29T16:50:04.829Z,2.22
2022-11-29T16:52:36.512Z,2.35
2022-11-29T16:55:08.171Z,1.98
2022-11-29T16:57:39.058Z,2.10
2022-11-29T17:02:50.930Z,2.30
2022-11-29T17:05:22.007Z,2.30
2022-11-29T17:07:53.264Z,1.95
2022-11-29T17:10:26.670Z,2.30
2022-11-29T17:12:57.841Z,2.00
2022-11-29T17:15:29.194Z,2.03
2022-11-29T17:18:00.293Z,2.25
2022-11-29T17:20:31.206Z,2.03
2022-11-29T17:23:01.966Z,2.20
2022-11-29T17:25:33.140Z,2.10
2022-11-29T17:28:04.430Z,1.95
2022-11-29T17:30:36.666Z,2.20
2022-11-29T17:33:09.100Z,2.10
2022-11-29T17:35:40.285Z,2.13
2022-11-29T17:38:11.388Z,2.08
2022-11-29T17:40:42.800Z,1.92
2022-11-29T17:43:13.859Z,2.35
2022-11-29T17:45:45.002Z,1.95
2022-11-29T17:48:16.954Z,1.88
2022-11-29T17:50:48.180Z,2.17
2022-11-29T17:53:19.268Z,2.20
2022-11-29T17:55:50.011Z,1.90
2022-11-29T17:58:21.159Z,2.00
2022-11-29T18:03:23.626Z,1.95
2022-11-29T18:05:55.143Z,2.10
2022-11-29T18:08:26.034Z,2.10
2022-11-29T18:11:05.924Z,2.35
2022-11-29T18:13:37.972Z,2.00
2022-11-29T18:16:20.738Z,1.80
2022-11-29T18:19:01.050Z,1.90
2022-11-29T18:21:32.533Z,1.70
2022-11-29T18:26:35.530Z,1.60
2022-11-29T18:29:07.653Z,1.55
2022-11-29T18:31:40.756Z,1.55
2022-11-29T18:34:13.188Z,1.33
2022-11-29T18:36:47.095Z,1.75
2022-11-29T18:39:21.131Z,1.52
2022-11-29T18:41:52.375Z,1.75
2022-11-29T18:44:25.702Z,1.73
2022-11-29T18:46:57.487Z,1.65
2022-11-29T18:49:28.488Z,1.85
2022-11-29T18:51:59.486Z,1.80
2022-11-29T18:54:32.492Z,2.10
2022-11-29T18:57:03.529Z,1.50
2022-11-29T18:59:34.772Z,1.67
2022-11-29T19:02:06.350Z,1.90
2022-11-29T19:04:38.570Z,1.63
2022-11-29T19:07:09.908Z,1.77
2022-11-29T19:09:40.906Z,1.20
2022-11-29T19:12:12.194Z,1.20
2022-11-29T19:14:48.116Z,1.73
2022-11-29T19:17:20.964Z,1.15
2022-11-29T19:19:51.994Z,1.30
2022-11-29T19:22:23.244Z,1.00
2022-11-29T19:24:56.890Z,0.80
2022-11-29T19:27:27.945Z,0.90
2022-11-29T19:29:58.666Z,1.03
2022-11-29T19:32:29.877Z,1.15
2022-11-29T19:35:00.835Z,1.00
2022-11-29T19:37:33.531Z,1.13
2022-11-29T19:40:04.381Z,1.13
2022-11-29T19:42:35.723Z,1.00
2022-11-29T19:45:17.162Z,0.80
2022-11-29T19:47:48.658Z,0.80
2022-11-29T19:50:19.386Z,0.90
2022-11-29T19:52:50.646Z,0.85
2022-11-29T19:55:21.501Z,1.00
2022-11-29T19:57:52.488Z,1.20
2022-11-29T20:00:23.853Z,0.75
2022-11-29T20:02:55.440Z,0.85
2022-11-29T20:05:28.638Z,0.95
2022-11-29T20:07:59.498Z,0.70
2022-11-29T20:10:30.495Z,1.77
2022-11-29T20:13:01.725Z,0.70
2022-11-29T20:15:32.477Z,0.77
2022-11-29T20:18:03.871Z,0.80
2022-11-29T20:20:35.875Z,1.00
2022-11-29T20:25:37.881Z,0.88
2022-11-29T20:28:08.686Z,0.88
2022-11-29T20:30:39.451Z,0.90
2022-11-29T20:33:13.947Z,0.60
2022-11-29T20:35:44.947Z,0.95
2022-11-29T20:38:44.648Z,1.10
2022-11-29T20:41:56.470Z,1.05
2022-11-29T20:44:39.541Z,0.95
2022-11-29T20:47:17.630Z,1.10
2022-11-29T20:49:49.117Z,1.35
2022-11-29T20:52:44.481Z,0.90
2022-11-29T20:55:15.935Z,0.80
2022-11-29T20:57:46.825Z,1.00
2022-11-29T21:00:18.402Z,0.90
2022-11-29T21:02:49.415Z,0.90
2022-11-29T21:05:22.915Z,0.90
2022-11-29T21:07:54.041Z,1.10
2022-11-29T21:10:25.071Z,1.02
2022-11-29T21:12:56.395Z,1.00
2022-11-29T21:15:27.313Z,0.90
2022-11-29T21:17:58.413Z,0.82
2022-11-29T21:20:30.702Z,0.90
2022-11-29T21:25:45.769Z,0.80
2022-11-29T21:28:18.673Z,0.70
2022-11-29T21:30:49.766Z,0.90
2022-11-29T21:33:21.213Z,1.00
2022-11-29T21:35:55.237Z,1.02
2022-11-29T21:38:27.177Z,0.90
2022-11-29T21:40:58.417Z,0.80
2022-11-29T21:43:57.938Z,0.82
2022-11-29T21:46:21.538Z,0.90
2022-11-29T21:48:54.365Z,0.80
2022-11-29T21:51:25.549Z,0.70
2022-11-29T21:53:56.454Z,0.77
2022-11-29T21:56:27.425Z,0.80
2022-11-29T21:58:58.752Z,0.70
2022-11-29T22:01:30.792Z,0.90
2022-11-29T22:04:01.802Z,0.80
2022-11-29T22:06:33.709Z,0.80
2022-11-29T22:09:05.558Z,0.90
2022-11-29T22:11:36.871Z,0.90
2022-11-29T22:14:16.535Z,1.13
2022-11-29T22:16:55.548Z,0.70
2022-11-29T22:19:31.276Z,0.70
2022-11-29T22:22:03.754Z,0.73
2022-11-29T22:24:36.723Z,0.80
2022-11-29T22:27:08.627Z,1.10
2022-11-29T22:29:40.164Z,0.90
2022-11-29T22:32:11.391Z,0.82
2022-11-29T22:34:42.369Z,0.85
2022-11-29T22:37:14.045Z,0.77
2022-11-29T22:39:44.942Z,0.90
2022-11-29T22:42:16.041Z,1.17
2022-11-29T22:44:47.107Z,0.80
2022-11-29T22:47:18.262Z,0.80
2022-11-29T22:49:51.012Z,0.70
2022-11-29T22:52:21.949Z,0.70
2022-11-29T22:54:53.083Z,1.00
2022-11-29T22:57:24.014Z,0.90
2022-11-29T22:59:54.727Z,0.97
2022-11-29T23:02:25.623Z,0.93
2022-11-29T23:04:56.860Z,1.05
2022-11-29T23:09:58.719Z,1.00
2022-11-29T23:12:29.957Z,0.90
2022-11-29T23:15:00.852Z,1.05
2022-11-29T23:17:34.563Z,1.20
2022-11-29T23:20:06.251Z,1.20
2022-11-29T23:22:40.739Z,1.20
2022-11-29T23:25:12.034Z,1.00
2022-11-29T23:27:42.983Z,1.08
2022-11-29T23:30:15.012Z,0.93
2022-11-29T23:32:46.230Z,1.10
2022-11-29T23:35:17.274Z,1.20
2022-11-29T23:37:48.316Z,1.13
2022-11-29T23:40:19.279Z,1.10
2022-11-29T23:42:59.068Z,1.35
2022-11-29T23:45:30.203Z,1.10
2022-11-29T23:48:01.007Z,1.17
2022-11-29T23:50:31.945Z,1.10
2022-11-29T23:53:03.296Z,1.05
2022-11-29T23:55:34.228Z,1.10
2022-11-29T23:58:05.335Z,1.30
